Time;durP1;ratioP1;P1;durP2;ratioP2;P2;SDS_P1;SDS_P2;PMS_P1;PMS_P2;Temp;Humidity;BMP_temperature;BMP_pressure;BME280_temperature;BME280_humidity;BME280_pressure;Samples;Min_cycle;Max_cycle;Signal;HPM_P1;HPM_P2
2022/10/03 00:01:39;;;;;;;0.20;0.20;;;;;;;;;;5000476;28;20046;-94
2022/10/03 00:04:05;;;;;;;0.20;0.20;;;;;;;;;;5000577;28;20070;-92
2022/10/03 00:06:54;;;;;;;0.30;0.30;;;;;;;;;;5000258;28;20038;-93
2022/10/03 00:09:20;;;;;;;0.30;0.30;;;;;;;;;;5000240;28;20434;-94
2022/10/03 00:11:52;;;;;;;0.20;0.20;;;;;;;;;;5000319;28;20067;-94
2022/10/03 00:14:32;;;;;;;0.10;0.10;;;;;;;;;;5000340;28;20137;-93
2022/10/03 00:17:16;;;;;;;0.20;0.20;;;;;;;;;;5000297;28;20491;-91
2022/10/03 00:19:42;;;;;;;0.38;0.38;;;;;;;;;;4999928;28;20454;-94
2022/10/03 00:22:29;;;;;;;0.15;0.15;;;;;;;;;;4999933;28;20041;-92
2022/10/03 00:24:58;;;;;;;0.20;0.20;;;;;;;;;;4999956;28;20041;-93
2022/10/03 00:27:27;;;;;;;0.10;0.10;;;;;;;;;;5000244;28;20518;-93
2022/10/03 00:30:12;;;;;;;0.10;0.10;;;;;;;;;;5000060;28;20567;-92
2022/10/03 00:32:42;;;;;;;0.20;0.20;;;;;;;;;;4999952;28;20042;-92
2022/10/03 00:35:27;;;;;;;0.20;0.20;;;;;;;;;;5006436;28;20128;-93
2022/10/03 00:38:05;;;;;;;0.20;0.20;;;;;;;;;;5019370;28;20128;-92
2022/10/03 00:40:34;;;;;;;0.30;0.30;;;;;;;;;;5019198;28;20139;-91
2022/10/03 00:43:26;;;;;;;0.30;0.30;;;;;;;;;;4980008;28;20042;-92
2022/10/03 00:45:55;;;;;;;0.20;0.20;;;;;;;;;;4980247;28;20043;-91
2022/10/03 00:48:33;;;;;;;0.20;0.20;;;;;;;;;;4979189;28;20408;-94
2022/10/03 00:51:18;;;;;;;0.20;0.20;;;;;;;;;;4979766;28;20129;-94
2022/10/03 00:53:53;;;;;;;0.30;0.30;;;;;;;;;;4979810;28;20073;-93
2022/10/03 00:56:20;;;;;;;;;;;;;;;;;;4980183;28;20042;-93
2022/10/03 00:58:52;;;;;;;0.10;0.10;;;;;;;;;;4979558;28;20012;-90
2022/10/03 01:01:23;;;;;;;0.10;0.10;;;;;;;;;;4979599;28;20046;-93
2022/10/03 01:04:06;;;;;;;0.20;0.20;;;;;;;;;;4979726;28;20038;-92
2022/10/03 01:06:38;;;;;;;0.20;0.20;;;;;;;;;;4979999;28;20042;-91
2022/10/03 01:09:07;;;;;;;0.22;0.22;;;;;;;;;;4979525;28;20046;-91
2022/10/03 01:11:40;;;;;;;0.15;0.15;;;;;;;;;;4979689;28;20053;-91
2022/10/03 01:14:09;;;;;;;0.20;0.20;;;;;;;;;;4979563;28;20100;-92
2022/10/03 01:16:44;;;;;;;0.20;0.20;;;;;;;;;;4979731;28;20062;-92
2022/10/03 01:19:10;;;;;;;0.10;0.10;;;;;;;;;;4981147;28;20038;-93
2022/10/03 01:21:51;;;;;;;0.10;0.10;;;;;;;;;;4998741;28;20120;-93
2022/10/03 01:24:36;;;;;;;0.30;0.30;;;;;;;;;;4998764;28;20034;-92
2022/10/03 01:27:06;;;;;;;0.30;0.30;;;;;;;;;;5015550;28;20042;-91
2022/10/03 01:32:40;;;;;;;0.28;0.28;;;;;;;;;;5015035;28;20132;-93
2022/10/03 01:35:29;;;;;;;0.20;0.20;;;;;;;;;;4998870;28;20088;-92
2022/10/03 01:38:05;;;;;;;0.20;0.20;;;;;;;;;;4980533;28;20053;-91
2022/10/03 01:40:37;;;;;;;0.10;0.10;;;;;;;;;;4998307;28;20056;-91
2022/10/03 01:43:09;;;;;;;0.20;0.20;;;;;;;;;;5014680;28;20125;-91
2022/10/03 01:45:47;;;;;;;0.30;0.30;;;;;;;;;;4998571;28;20037;-91
2022/10/03 01:48:14;;;;;;;0.30;0.30;;;;;;;;;;5014522;28;20092;-91
2022/10/03 01:51:00;;;;;;;0.30;0.30;;;;;;;;;;4998100;28;20042;-91
2022/10/03 01:53:35;;;;;;;0.20;0.20;;;;;;;;;;4998288;28;20037;-91
2022/10/03 01:56:04;;;;;;;0.30;0.30;;;;;;;;;;4998121;28;20458;-90
2022/10/03 01:58:36;;;;;;;0.17;0.17;;;;;;;;;;4998301;28;20048;-92
2022/10/03 02:01:06;;;;;;;0.20;0.20;;;;;;;;;;5014396;28;20084;-93
2022/10/03 02:03:38;;;;;;;0.20;0.20;;;;;;;;;;4998023;28;20042;-92
2022/10/03 02:06:05;;;;;;;0.30;0.30;;;;;;;;;;4998076;28;20081;-92
2022/10/03 02:08:42;;;;;;;0.20;0.20;;;;;;;;;;4997848;28;20120;-92
2022/10/03 02:11:09;;;;;;;0.20;0.20;;;;;;;;;;4998022;28;20099;-91
2022/10/03 02:13:38;;;;;;;0.30;0.30;;;;;;;;;;4997820;28;20060;-91
2022/10/03 02:16:15;;;;;;;0.30;0.30;;;;;;;;;;4997340;28;20049;-92
2022/10/03 02:18:45;;;;;;;0.20;0.20;;;;;;;;;;4997419;28;20038;-92
2022/10/03 02:21:38;;;;;;;0.20;0.20;;;;;;;;;;4997260;28;20037;-92
2022/10/03 02:24:17;;;;;;;0.10;0.10;;;;;;;;;;4995865;28;20136;-92
2022/10/03 02:26:46;;;;;;;0.20;0.20;;;;;;;;;;4997967;28;20439;-91
2022/10/03 02:29:15;;;;;;;0.30;0.30;;;;;;;;;;4997602;28;20044;-91
2022/10/03 02:32:00;;;;;;;0.30;0.30;;;;;;;;;;4997594;28;20116;-91
2022/10/03 02:34:56;;;;;;;0.30;0.30;;;;;;;;;;4997494;28;20045;-92
2022/10/03 02:37:22;;;;;;;0.10;0.10;;;;;;;;;;4997306;28;20038;-91
2022/10/03 02:40:07;;;;;;;0.10;0.10;;;;;;;;;;4997164;28;20053;-91
2022/10/03 02:42:51;;;;;;;0.20;0.20;;;;;;;;;;4997115;28;20046;-91
2022/10/03 02:45:17;;;;;;;0.30;0.30;;;;;;;;;;4977739;28;20142;-91
2022/10/03 02:48:02;;;;;;;0.10;0.10;;;;;;;;;;4978081;28;20084;-91
2022/10/03 02:50:44;;;;;;;0.30;0.30;;;;;;;;;;4977669;28;20038;-90
2022/10/03 02:53:25;;;;;;;0.13;0.13;;;;;;;;;;4977785;28;20046;-91
2022/10/03 02:55:54;;;;;;;0.20;0.20;;;;;;;;;;4977785;28;20391;-92
2022/10/03 02:58:28;;;;;;;0.20;0.20;;;;;;;;;;4978082;28;20404;-94
2022/10/03 03:01:00;;;;;;;0.10;0.10;;;;;;;;;;4977673;28;20046;-93
2022/10/03 03:03:44;;;;;;;0.30;0.30;;;;;;;;;;4984836;28;20042;-92
2022/10/03 03:06:25;;;;;;;0.20;0.20;;;;;;;;;;4997185;28;20085;-92
2022/10/03 03:09:09;;;;;;;0.30;0.30;;;;;;;;;;4996929;28;20042;-91
2022/10/03 03:11:55;;;;;;;0.20;0.20;;;;;;;;;;4996333;28;20038;-91
2022/10/03 03:14:24;;;;;;;0.32;0.32;;;;;;;;;;4997003;28;20049;-92
2022/10/03 03:16:56;;;;;;;0.30;0.30;;;;;;;;;;4996816;28;20046;-91
2022/10/03 03:19:22;;;;;;;0.40;0.40;;;;;;;;;;4996685;28;20053;-92
2022/10/03 03:21:54;;;;;;;0.30;0.30;;;;;;;;;;4996766;28;20041;-91
2022/10/03 03:24:39;;;;;;;0.25;0.25;;;;;;;;;;4996754;28;20041;-91
2022/10/03 03:27:17;;;;;;;0.20;0.20;;;;;;;;;;5013320;28;20092;-90
2022/10/03 03:30:01;;;;;;;0.30;0.30;;;;;;;;;;4996295;28;20099;-91
2022/10/03 03:32:56;;;;;;;0.20;0.20;;;;;;;;;;4996579;28;20073;-91
2022/10/03 03:35:25;;;;;;;0.20;0.20;;;;;;;;;;4988109;28;20096;-91
2022/10/03 03:38:01;;;;;;;0.30;0.30;;;;;;;;;;4996637;28;20087;-90
2022/10/03 03:40:34;;;;;;;0.30;0.30;;;;;;;;;;4996452;28;20045;-91
2022/10/03 03:43:10;;;;;;;0.30;0.30;;;;;;;;;;4996462;28;20042;-91
2022/10/03 03:45:39;;;;;;;0.20;0.20;;;;;;;;;;4996667;28;20042;-92
2022/10/03 03:48:11;;;;;;;0.20;0.20;;;;;;;;;;4996783;28;20045;-91
2022/10/03 03:50:43;;;;;;;0.20;0.20;;;;;;;;;;4996673;28;20038;-91
2022/10/03 03:53:36;;;;;;;0.40;0.40;;;;;;;;;;5007930;28;20188;-94
2022/10/03 04:37:23;;;;;;;0.20;0.20;;;;;;;;;;5061191;28;20039;-94
2022/10/03 04:42:47;;;;;;;0.20;0.20;;;;;;;;;;5132411;23;19921;-93
2022/10/03 04:45:37;;;;;;;0.20;0.20;;;;;;;;;;5038139;28;20081;-92
2022/10/03 04:48:22;;;;;;;0.15;0.15;;;;;;;;;;5013092;28;20025;-94
2022/10/03 04:51:21;;;;;;;0.20;0.20;;;;;;;;;;5013667;28;20062;-94
2022/10/03 05:20:02;;;;;;;0.30;0.30;;;;;;;;;;5039960;28;20494;-94
2022/10/03 05:22:43;;;;;;;0.30;0.30;;;;;;;;;;5010520;28;20041;-93
2022/10/03 05:25:28;;;;;;;0.32;0.32;;;;;;;;;;5022640;28;20029;-95
2022/10/03 05:30:57;;;;;;;0.22;0.22;;;;;;;;;;5119915;22;20053;-93
2022/10/03 05:33:28;;;;;;;0.20;0.20;;;;;;;;;;5024576;28;20068;-94
2022/10/03 05:36:09;;;;;;;0.30;0.30;;;;;;;;;;5020351;28;20042;-95
2022/10/03 05:38:35;;;;;;;0.30;0.30;;;;;;;;;;5050669;28;20044;-95
2022/10/03 05:41:03;;;;;;;0.35;0.35;;;;;;;;;;5054843;28;20037;-95
2022/10/03 05:43:35;;;;;;;0.20;0.20;;;;;;;;;;5054086;28;20479;-95
2022/10/03 05:46:13;;;;;;;0.20;0.20;;;;;;;;;;5054786;28;20037;-95
2022/10/03 05:48:45;;;;;;;0.30;0.30;;;;;;;;;;5035113;28;20042;-95
2022/10/03 05:51:35;;;;;;;0.30;0.30;;;;;;;;;;5018488;28;20144;-94
2022/10/03 05:54:01;;;;;;;0.38;0.38;;;;;;;;;;5017163;28;20038;-95
2022/10/03 05:56:34;;;;;;;0.20;0.20;;;;;;;;;;5017853;28;20076;-94
2022/10/03 05:59:09;;;;;;;0.10;0.10;;;;;;;;;;5036842;28;20059;-94
2022/10/03 06:01:50;;;;;;;0.20;0.20;;;;;;;;;;5017542;28;20049;-95
2022/10/03 06:04:24;;;;;;;0.20;0.20;;;;;;;;;;5027225;28;20040;-95
2022/10/03 06:07:09;;;;;;;0.17;0.17;;;;;;;;;;5036683;28;20033;-95
2022/10/03 06:09:50;;;;;;;0.10;0.10;;;;;;;;;;5036471;28;20121;-93
2022/10/03 06:12:24;;;;;;;0.20;0.20;;;;;;;;;;5042553;28;20049;-95
2022/10/03 06:15:13;;;;;;;0.20;0.20;;;;;;;;;;5015529;28;20048;-93
2022/10/03 06:17:40;;;;;;;0.30;0.30;;;;;;;;;;5032742;28;20044;-93
2022/10/03 06:20:25;;;;;;;0.25;0.25;;;;;;;;;;5034784;28;20049;-93
2022/10/03 06:23:06;;;;;;;0.30;0.30;;;;;;;;;;5043120;28;20057;-93
2022/10/03 06:25:51;;;;;;;0.40;0.40;;;;;;;;;;5042865;28;20044;-93
2022/10/03 06:28:27;;;;;;;0.30;0.30;;;;;;;;;;5043221;28;20038;-95
2022/10/03 06:31:12;;;;;;;0.30;0.30;;;;;;;;;;5029447;28;20041;-96
2022/10/03 06:33:57;;;;;;;0.40;0.40;;;;;;;;;;5054433;28;20048;-95
2022/10/03 06:36:29;;;;;;;0.40;0.40;;;;;;;;;;5054248;28;20049;-96
2022/10/03 06:39:14;;;;;;;0.20;0.20;;;;;;;;;;5039538;28;20045;-94
2022/10/03 06:41:40;;;;;;;0.25;0.25;;;;;;;;;;5034578;28;20041;-96
2022/10/03 06:44:22;;;;;;;0.35;0.35;;;;;;;;;;5018532;28;20041;-95
2022/10/03 06:46:58;;;;;;;0.40;0.40;;;;;;;;;;5032767;28;20043;-96
2022/10/03 06:49:31;;;;;;;0.40;0.40;;;;;;;;;;5054528;28;20044;-95
2022/10/03 06:51:57;;;;;;;0.32;0.32;;;;;;;;;;5051224;28;20047;-96
2022/10/03 06:54:42;;;;;;;0.25;0.25;;;;;;;;;;5043351;28;20128;-95
2022/10/03 06:57:34;;;;;;;0.20;0.20;;;;;;;;;;5025050;28;20055;-89
2022/10/03 07:00:20;;;;;;;0.30;0.30;;;;;;;;;;5026311;28;20055;-89
2022/10/03 07:03:08;;;;;;;0.20;0.20;;;;;;;;;;5021165;28;20048;-88
2022/10/03 07:05:52;;;;;;;0.28;0.28;;;;;;;;;;5026563;28;20096;-90
2022/10/03 07:08:28;;;;;;;0.20;0.20;;;;;;;;;;5017594;28;20052;-92
2022/10/03 07:11:09;;;;;;;0.32;0.32;;;;;;;;;;5029481;28;20037;-92
2022/10/03 07:13:49;;;;;;;0.30;0.30;;;;;;;;;;5048275;28;20104;-93
2022/10/03 07:16:35;;;;;;;0.17;0.17;;;;;;;;;;5031205;28;20044;-91
2022/10/03 07:19:04;;;;;;;0.30;0.30;;;;;;;;;;5027305;28;20075;-95
2022/10/03 07:21:37;;;;;;;0.20;0.20;;;;;;;;;;5029324;28;20548;-93
2022/10/03 07:24:30;;;;;;;0.15;0.15;;;;;;;;;;5042554;28;20036;-92
2022/10/03 07:27:02;;;;;;;0.25;0.25;;;;;;;;;;5030172;28;20041;-94
2022/10/03 07:29:49;;;;;;;0.20;0.20;;;;;;;;;;5030676;28;20037;-93
2022/10/03 07:32:17;;;;;;;0.30;0.30;;;;;;;;;;5020938;28;20029;-91
2022/10/03 07:35:07;;;;;;;0.20;0.20;;;;;;;;;;5040801;28;20064;-91
2022/10/03 07:40:40;;;;;;;0.25;0.25;;;;;;;;;;5034984;28;20042;-89
2022/10/03 07:43:09;;;;;;;0.20;0.20;;;;;;;;;;5018300;28;20046;-90
2022/10/03 07:45:54;;;;;;;0.30;0.30;;;;;;;;;;5025979;28;20486;-90
2022/10/03 07:48:20;;;;;;;;;;;;;;;;;;5009567;28;20072;-91
2022/10/03 07:51:16;;;;;;;0.10;0.10;;;;;;;;;;5037056;28;20357;-91
2022/10/03 07:53:42;;;;;;;0.20;0.20;;;;;;;;;;5016862;28;20035;-89
2022/10/03 07:56:18;;;;;;;0.20;0.20;;;;;;;;;;5025102;28;20075;-89
2022/10/03 07:58:57;;;;;;;0.20;0.20;;;;;;;;;;5025846;28;20048;-89
2022/10/03 08:01:42;;;;;;;0.20;0.20;;;;;;;;;;5022805;28;20507;-89
2022/10/03 08:04:31;;;;;;;0.20;0.20;;;;;;;;;;5020436;28;20052;-90
2022/10/03 08:07:17;;;;;;;0.20;0.20;;;;;;;;;;5032021;28;20049;-90
2022/10/03 08:09:43;;;;;;;;;;;;;;;;;;5022845;28;20030;-88
2022/10/03 08:12:30;;;;;;;0.20;0.20;;;;;;;;;;5022765;28;19999;-90
2022/10/03 08:15:20;;;;;;;0.20;0.20;;;;;;;;;;4997435;28;20053;-89
2022/10/03 08:18:02;;;;;;;0.20;0.20;;;;;;;;;;5026350;28;20033;-89
2022/10/03 08:20:31;;;;;;;0.20;0.20;;;;;;;;;;5026888;28;20044;-88
2022/10/03 08:23:03;;;;;;;0.20;0.20;;;;;;;;;;5043019;28;20053;-88
2022/10/03 08:25:40;;;;;;;0.10;0.10;;;;;;;;;;5040724;28;20029;-89
2022/10/03 08:28:25;;;;;;;0.20;0.20;;;;;;;;;;5040172;28;20469;-90
2022/10/03 08:31:13;;;;;;;0.20;0.20;;;;;;;;;;5026837;28;20068;-89
2022/10/03 08:33:39;;;;;;;0.10;0.10;;;;;;;;;;5042200;28;20136;-88
2022/10/03 08:36:25;;;;;;;0.10;0.10;;;;;;;;;;5027286;28;20064;-92
2022/10/03 08:38:58;;;;;;;0.20;0.20;;;;;;;;;;5017361;28;20109;-89
2022/10/03 08:41:54;;;;;;;0.30;0.30;;;;;;;;;;5145368;27;1312527;-90
2022/10/03 08:44:39;;;;;;;0.10;0.10;;;;;;;;;;5141703;27;20038;-90
2022/10/03 08:47:24;;;;;;;0.20;0.20;;;;;;;;;;5140567;27;20038;-90
2022/10/03 08:49:56;;;;;;;0.17;0.17;;;;;;;;;;5136853;27;20099;-89
2022/10/03 08:52:22;;;;;;;0.30;0.30;;;;;;;;;;5144975;27;20094;-89
2022/10/03 08:55:02;;;;;;;0.20;0.20;;;;;;;;;;5142971;27;20065;-88
2022/10/03 08:58:00;;;;;;;0.20;0.20;;;;;;;;;;5137125;27;20094;-89
2022/10/03 09:00:51;;;;;;;0.20;0.20;;;;;;;;;;5114439;27;20046;-90
2022/10/03 09:03:20;;;;;;;0.10;0.10;;;;;;;;;;5142199;27;20094;-88
2022/10/03 09:06:07;;;;;;;0.30;0.30;;;;;;;;;;5142487;27;20038;-90
2022/10/03 09:08:37;;;;;;;0.20;0.20;;;;;;;;;;5143414;27;20046;-89
2022/10/03 09:11:03;;;;;;;0.10;0.10;;;;;;;;;;5154305;27;20043;-88
2022/10/03 09:13:37;;;;;;;0.20;0.20;;;;;;;;;;5146604;27;20037;-86
2022/10/03 09:16:22;;;;;;;0.10;0.10;;;;;;;;;;5138831;27;20596;-87
2022/10/03 09:19:02;;;;;;;0.10;0.10;;;;;;;;;;5138225;27;20038;-86
2022/10/03 09:21:52;;;;;;;0.10;0.10;;;;;;;;;;5138068;27;20061;-89
2022/10/03 09:24:34;;;;;;;0.10;0.10;;;;;;;;;;5148465;27;20045;-89
2022/10/03 09:27:00;;;;;;;0.10;0.10;;;;;;;;;;5131894;27;20055;-91
2022/10/03 09:29:44;;;;;;;0.20;0.20;;;;;;;;;;5141073;27;20058;-91
2022/10/03 09:32:35;;;;;;;0.10;0.10;;;;;;;;;;5127972;27;20046;-92
2022/10/03 09:35:24;;;;;;;0.10;0.10;;;;;;;;;;5146636;27;20065;-92
2022/10/03 09:38:05;;;;;;;0.20;0.20;;;;;;;;;;5133896;27;20125;-90
2022/10/03 09:40:50;;;;;;;0.10;0.10;;;;;;;;;;5145212;27;20035;-90
2022/10/03 09:43:37;;;;;;;0.20;0.20;;;;;;;;;;5147363;27;20042;-92
2022/10/03 09:46:26;;;;;;;0.20;0.20;;;;;;;;;;5163799;27;20038;-92
2022/10/03 09:48:59;;;;;;;0.10;0.10;;;;;;;;;;5147529;27;20102;-92
2022/10/03 09:51:44;;;;;;;0.10;0.10;;;;;;;;;;5133789;27;20019;-92
2022/10/03 09:54:24;;;;;;;0.10;0.10;;;;;;;;;;5127069;27;20049;-92
2022/10/03 09:57:09;;;;;;;0.10;0.10;;;;;;;;;;5132874;27;20050;-92
2022/10/03 09:59:47;;;;;;;0.10;0.10;;;;;;;;;;5126447;27;20042;-92
2022/10/03 10:02:13;;;;;;;0.10;0.10;;;;;;;;;;5130068;27;20030;-92
2022/10/03 10:04:57;;;;;;;0.10;0.10;;;;;;;;;;5129086;27;20031;-92
2022/10/03 10:07:39;;;;;;;0.10;0.10;;;;;;;;;;5121577;27;20045;-93
2022/10/03 10:10:31;;;;;;;0.08;0.08;;;;;;;;;;5128933;27;20456;-93
2022/10/03 10:13:17;;;;;;;0.10;0.10;;;;;;;;;;5146705;27;20103;-94
2022/10/03 10:15:43;;;;;;;0.10;0.10;;;;;;;;;;5132770;27;20039;-94
2022/10/03 10:18:15;;;;;;;0.10;0.10;;;;;;;;;;5132618;27;20208;-92
2022/10/03 10:20:41;;;;;;;0.10;0.10;;;;;;;;;;5128588;27;20060;-93
2022/10/03 10:23:15;;;;;;;0.10;0.10;;;;;;;;;;5129431;27;20030;-92
2022/10/03 10:25:43;;;;;;;0.10;0.10;;;;;;;;;;5129252;27;20066;-94
2022/10/03 10:28:14;;;;;;;0.20;0.20;;;;;;;;;;5148684;27;20057;-90
2022/10/03 10:31:00;;;;;;;0.20;0.20;;;;;;;;;;5135057;27;20038;-92
2022/10/03 10:33:41;;;;;;;0.22;0.22;;;;;;;;;;5101796;27;20060;-92
2022/10/03 10:36:27;;;;;;;0.20;0.20;;;;;;;;;;5135455;27;20095;-92
2022/10/03 10:39:13;;;;;;;0.10;0.10;;;;;;;;;;5130751;27;20603;-92
2022/10/03 10:41:53;;;;;;;0.00;0.00;;;;;;;;;;5133244;27;20046;-93
2022/10/03 10:44:19;;;;;;;0.20;0.20;;;;;;;;;;5132755;27;20062;-92
2022/10/03 10:46:51;;;;;;;0.10;0.10;;;;;;;;;;5144680;27;20043;-91
2022/10/03 10:49:17;;;;;;;0.10;0.10;;;;;;;;;;5130434;27;20043;-92
2022/10/03 10:51:46;;;;;;;0.10;0.10;;;;;;;;;;5131617;27;20035;-93
2022/10/03 10:54:31;;;;;;;0.10;0.10;;;;;;;;;;5134910;27;20050;-95
2022/10/03 10:57:06;;;;;;;0.10;0.10;;;;;;;;;;5130303;27;20060;-94
2022/10/03 11:00:10;;;;;;;0.15;0.15;;;;;;;;;;5151235;27;20051;-93
2022/10/03 11:02:39;;;;;;;0.10;0.10;;;;;;;;;;5052983;28;20088;-90
2022/10/03 11:05:24;;;;;;;0.10;0.10;;;;;;;;;;5114936;27;20051;-93
2022/10/03 11:08:10;;;;;;;0.10;0.10;;;;;;;;;;5122855;27;20098;-90
2022/10/03 11:10:36;;;;;;;;;;;;;;;;;;5126606;27;20039;-92
2022/10/03 11:13:22;;;;;;;0.10;0.10;;;;;;;;;;5130704;27;19971;-91
2022/10/03 11:16:07;;;;;;;0.00;0.00;;;;;;;;;;5119360;27;20047;-92
2022/10/03 11:18:40;;;;;;;0.30;0.30;;;;;;;;;;5126393;27;20046;-90
2022/10/03 11:21:32;;;;;;;0.10;0.10;;;;;;;;;;5125460;27;20043;-92
2022/10/03 11:24:11;;;;;;;0.20;0.20;;;;;;;;;;5139738;27;20031;-90
2022/10/03 11:26:55;;;;;;;0.10;0.10;;;;;;;;;;5122543;27;20039;-90
2022/10/03 11:29:41;;;;;;;0.10;0.10;;;;;;;;;;5118704;27;20419;-91
2022/10/03 11:32:23;;;;;;;0.10;0.10;;;;;;;;;;5128122;27;20035;-91
2022/10/03 11:34:56;;;;;;;0.20;0.20;;;;;;;;;;5124843;27;20476;-91
2022/10/03 11:37:34;;;;;;;0.10;0.10;;;;;;;;;;5117220;27;20063;-89
2022/10/03 11:40:28;;;;;;;0.10;0.10;;;;;;;;;;5145626;27;20045;-90
2022/10/03 11:42:54;;;;;;;0.10;0.10;;;;;;;;;;5112302;27;20099;-89
2022/10/03 11:45:26;;;;;;;0.10;0.10;;;;;;;;;;5123527;27;20244;-92
2022/10/03 11:47:56;;;;;;;0.15;0.15;;;;;;;;;;5121368;27;20036;-89
2022/10/03 11:50:25;;;;;;;0.10;0.10;;;;;;;;;;5114717;27;20071;-91
2022/10/03 11:53:10;;;;;;;0.10;0.10;;;;;;;;;;5151444;27;20050;-95
2022/10/03 11:55:46;;;;;;;0.10;0.10;;;;;;;;;;5141745;27;20042;-91
2022/10/03 11:58:21;;;;;;;0.15;0.15;;;;;;;;;;5125293;27;20031;-90
2022/10/03 12:00:51;;;;;;;0.10;0.10;;;;;;;;;;5126016;27;20563;-90
2022/10/03 12:03:25;;;;;;;0.10;0.10;;;;;;;;;;5147297;27;20513;-90
2022/10/03 12:08:53;;;;;;;0.20;0.20;;;;;;;;;;5146381;27;20073;-90
2022/10/03 12:09:02;;;;;;;0.13;0.13;;;;;;;;;;5134231;27;20081;-90
2022/10/03 12:11:33;;;;;;;0.10;0.10;;;;;;;;;;5133755;27;20058;-91
2022/10/03 12:14:05;;;;;;;0.20;0.20;;;;;;;;;;5131966;27;20043;-90
2022/10/03 12:16:44;;;;;;;0.13;0.13;;;;;;;;;;5114604;27;20039;-92
2022/10/03 12:22:37;;;;;;;0.10;0.10;;;;;;;;;;5139279;27;20050;-90
2022/10/03 12:25:23;;;;;;;0.20;0.20;;;;;;;;;;5122424;27;20045;-90
2022/10/03 12:28:13;;;;;;;0.10;0.10;;;;;;;;;;5126361;27;20046;-92
2022/10/03 12:30:59;;;;;;;0.10;0.10;;;;;;;;;;5136711;27;20031;-91
2022/10/03 12:33:44;;;;;;;0.10;0.10;;;;;;;;;;5122312;27;20395;-90
2022/10/03 12:36:18;;;;;;;0.20;0.20;;;;;;;;;;5127072;27;20046;-91
2022/10/03 12:39:59;;;;;;;;;;;;;;;;;;;;;
2022/10/03 12:42:25;;;;;;;0.20;0.20;;;;;;;;;;5148582;27;20047;-93
2022/10/03 12:45:07;;;;;;;0.20;0.20;;;;;;;;;;5123561;27;20019;-89
2022/10/03 12:47:57;;;;;;;0.20;0.20;;;;;;;;;;5152328;27;20030;-91
2022/10/03 12:50:31;;;;;;;0.20;0.20;;;;;;;;;;5126866;27;20091;-93
2022/10/03 12:53:00;;;;;;;0.10;0.10;;;;;;;;;;5126775;27;20062;-89
2022/10/03 12:55:27;;;;;;;0.20;0.20;;;;;;;;;;5114545;27;20027;-90
2022/10/03 12:57:54;;;;;;;0.10;0.10;;;;;;;;;;5115511;27;20027;-90
2022/10/03 13:00:39;;;;;;;0.13;0.13;;;;;;;;;;5121674;27;20031;-89
2022/10/03 13:03:32;;;;;;;0.10;0.10;;;;;;;;;;5115891;28;20070;-90
2022/10/03 13:06:22;;;;;;;0.20;0.20;;;;;;;;;;5141355;28;20063;-89
2022/10/03 13:08:54;;;;;;;0.10;0.10;;;;;;;;;;5126648;27;20045;-89
2022/10/03 13:12:00;;;;;;;0.10;0.10;;;;;;;;;;5127759;27;20026;-90
2022/10/03 13:14:39;;;;;;;0.15;0.15;;;;;;;;;;5044900;28;20037;-91
2022/10/03 13:17:16;;;;;;;0.10;0.10;;;;;;;;;;5115099;27;20069;-87
2022/10/03 13:19:50;;;;;;;0.10;0.10;;;;;;;;;;5120533;27;20038;-91
2022/10/03 13:22:42;;;;;;;0.20;0.20;;;;;;;;;;5109847;28;20049;-90
2022/10/03 13:25:30;;;;;;;0.10;0.10;;;;;;;;;;5124537;27;20499;-89
2022/10/03 13:28:01;;;;;;;0.10;0.10;;;;;;;;;;5129265;27;20034;-88
2022/10/03 13:30:35;;;;;;;0.08;0.08;;;;;;;;;;5129059;27;20103;-89
2022/10/03 13:33:16;;;;;;;0.10;0.10;;;;;;;;;;5137161;27;20042;-93
2022/10/03 13:35:58;;;;;;;0.10;0.10;;;;;;;;;;5136787;27;20035;-95
2022/10/03 13:38:33;;;;;;;0.10;0.10;;;;;;;;;;5140959;27;20102;-93
2022/10/03 13:41:09;;;;;;;0.10;0.10;;;;;;;;;;5141160;27;20031;-94
2022/10/03 13:43:37;;;;;;;0.00;0.00;;;;;;;;;;5138426;27;20073;-95
2022/10/03 13:46:15;;;;;;;0.10;0.10;;;;;;;;;;5133498;27;20031;-95
2022/10/03 13:48:44;;;;;;;0.10;0.10;;;;;;;;;;5139431;27;20072;-95
2022/10/03 13:51:23;;;;;;;0.10;0.10;;;;;;;;;;5137891;27;20056;-91
2022/10/03 13:53:57;;;;;;;0.10;0.10;;;;;;;;;;5137274;27;20043;-92
2022/10/03 13:56:43;;;;;;;0.10;0.10;;;;;;;;;;5136372;27;20031;-95
2022/10/03 13:59:24;;;;;;;0.20;0.20;;;;;;;;;;5150071;27;20064;-94
2022/10/03 14:01:50;;;;;;;0.20;0.20;;;;;;;;;;5136633;27;20043;-93
2022/10/03 14:04:31;;;;;;;0.10;0.10;;;;;;;;;;5127471;27;20065;-92
2022/10/03 14:10:27;;;;;;;0.10;0.10;;;;;;;;;;5131610;27;20053;-88
2022/10/03 14:16:42;;;;;;;0.08;0.08;;;;;;;;;;5098689;28;20044;-90
2022/10/03 14:19:09;;;;;;;0.30;0.30;;;;;;;;;;5072905;28;20047;-92
2022/10/03 14:21:47;;;;;;;0.10;0.10;;;;;;;;;;5100764;27;20043;-94
2022/10/03 14:24:23;;;;;;;0.03;0.03;;;;;;;;;;5119638;27;20110;-93
2022/10/03 14:26:56;;;;;;;0.10;0.10;;;;;;;;;;5124230;27;20487;-93
2022/10/03 14:29:35;;;;;;;0.10;0.10;;;;;;;;;;5140629;27;20043;-92
2022/10/03 14:32:09;;;;;;;0.10;0.10;;;;;;;;;;5138855;27;20046;-91
2022/10/03 14:34:54;;;;;;;0.10;0.10;;;;;;;;;;5129006;27;20098;-94
2022/10/03 14:37:23;;;;;;;0.10;0.10;;;;;;;;;;5124003;27;20394;-94
2022/10/03 14:40:00;;;;;;;0.10;0.10;;;;;;;;;;5129217;27;20034;-92
2022/10/03 14:42:28;;;;;;;0.10;0.10;;;;;;;;;;5134699;27;20070;-95
2022/10/03 14:45:07;;;;;;;0.20;0.20;;;;;;;;;;5131472;27;20050;-93
2022/10/03 14:47:47;;;;;;;0.17;0.17;;;;;;;;;;5132609;27;20091;-94
2022/10/03 14:50:22;;;;;;;0.15;0.15;;;;;;;;;;5134318;27;20038;-95
2022/10/03 14:52:51;;;;;;;0.25;0.25;;;;;;;;;;5132498;27;20035;-94
2022/10/03 14:55:21;;;;;;;0.10;0.10;;;;;;;;;;5132371;27;20066;-95
2022/10/03 14:57:51;;;;;;;0.00;0.00;;;;;;;;;;5132544;27;20295;-90
2022/10/03 15:00:29;;;;;;;0.20;0.20;;;;;;;;;;5124674;27;20031;-95
2022/10/03 15:02:55;;;;;;;0.08;0.08;;;;;;;;;;5131847;27;20043;-94
2022/10/03 15:05:35;;;;;;;0.10;0.10;;;;;;;;;;5466738;22;20033;-94
2022/10/03 16:28:44;;;;;;;0.10;0.10;;;;;;;;;;4975559;28;20083;-94
2022/10/03 16:31:19;;;;;;;0.10;0.10;;;;;;;;;;4961638;28;20102;-96
2022/10/03 16:34:07;;;;;;;0.10;0.10;;;;;;;;;;4953937;29;20027;-95
2022/10/03 16:40:23;;;;;;;0.10;0.10;;;;;;;;;;4959102;29;20032;-96
2022/10/03 16:43:37;;;;;;;;;;;;;;;;;;;;;
2022/10/03 16:46:43;;;;;;;0.13;0.13;;;;;;;;;;4963523;28;20051;-94
2022/10/03 16:55:39;;;;;;;0.10;0.10;;;;;;;;;;5063510;23;19921;-95
2022/10/03 16:58:08;;;;;;;0.10;0.10;;;;;;;;;;5028487;28;20038;-96
2022/10/03 17:17:32;;;;;;;0.15;0.15;;;;;;;;;;4950179;29;20104;-94
